Latest Weather Observations for Pound Creek

IDV60801

Issued at 1:31 pm EST Saturday 5 September 2015 (issued every 30 minutes, with the page automatically refreshed every 10 minutes)

About weather observations | Map of weather stations | Latest weather observations for VIC | Other Formats
Station Details ID: 085099 Name: POUND CREEK Lat: -38.63 Lon: 145.81 Height: 3.0 m
Data from the previous 72 hours. | See also: Recent months at Pound Creek
Date/Time
EST
Temp
°C
App
Temp
°C
Dew
Point
Rel
Hum
%
Delta-T
°C
Wind Press
QNH
hPa
Press
MSL
hPa
Rain
since 9 am
mm
Dir
 
Spd
km/h
Gust
km/h
Spd
kts
Gust
kts
05/01:30pm 13.0 9.5 7.2 68 2.8 SW 15 19 8 10 1023.1 1023.1 0.0
05/01:00pm 12.9 9.7 6.7 66 3.0 SW 13 22 7 12 1023.6 1023.6 0.0
05/12:30pm 12.7 9.0 6.5 66 3.0 WSW 15 20 8 11 1024.2 1024.2 0.0
05/12:00pm 12.6 8.3 7.1 69 2.6 WSW 19 24 10 13 1024.3 1024.3 0.0
05/11:30am 12.7 8.9 7.4 70 2.6 SW 17 20 9 11 1024.4 1024.4 0.0
05/11:00am 12.0 8.4 6.9 71 2.4 SW 15 20 8 11 1024.5 1024.5 0.0
05/10:30am 12.1 8.9 7.0 71 2.4 SW 13 19 7 10 1024.7 1024.7 0.0
05/10:00am 12.1 8.6 7.2 72 2.3 SW 15 20 8 11 1024.8 1024.8 0.0
05/09:30am 12.1 8.0 7.8 75 2.1 SW 19 24 10 13 1024.9 1024.9 0.0
05/09:00am 11.3 7.5 7.6 78 1.8 SW 17 24 9 13 1024.9 1024.9 1.2
05/08:30am 11.1 8.5 9.4 89 0.9 WSW 13 20 7 11 1024.9 1024.9 1.2
05/08:00am 10.4 8.5 9.0 91 0.7 W 9 11 5 6 1024.7 1024.7 1.2
05/07:30am 10.2 7.8 8.8 91 0.7 W 11 17 6 9 1024.4 1024.4 1.2
05/07:00am 9.8 7.7 8.4 91 0.7 SW 9 13 5 7 1024.0 1024.0 1.2
05/06:30am 10.1 6.5 8.4 89 0.8 WSW 17 28 9 15 1023.6 1023.6 1.2
05/06:00am 10.0 5.9 7.8 86 1.1 SW 19 26 10 14 1023.4 1023.4 1.2
05/05:30am 9.5 7.6 8.9 96 0.3 W 9 11 5 6 1023.4 1023.4 1.2
05/05:00am 9.4 8.0 8.8 96 0.3 WNW 6 9 3 5 1023.1 1023.1 1.2
05/04:30am 9.6 8.2 9.0 96 0.3 WNW 6 11 3 6 1022.9 1022.9 1.2
05/04:00am 9.5 7.9 8.9 96 0.3 W 7 13 4 7 1022.7 1022.7 1.2
05/03:30am 9.6 8.0 8.8 95 0.4 WNW 7 13 4 7 1022.7 1022.7 1.0
05/03:00am 9.6 8.0 8.7 94 0.4 NW 7 17 4 9 1022.8 1022.8 0.2
05/02:30am 9.8 7.0 8.7 93 0.5 WNW 13 17 7 9 1023.2 1023.2 0.2
05/02:00am 9.8 7.8 8.7 93 0.5 NW 9 15 5 8 1023.4 1023.4 0.0
05/01:30am 9.8 8.2 8.7 93 0.5 NW 7 13 4 7 1023.6 1023.6 0.0
05/01:00am 9.6 7.9 8.5 93 0.5 NW 7 13 4 7 1023.7 1023.7 0.0
05/12:30am 9.6 7.9 8.4 92 0.6 NW 7 11 4 6 1023.8 1023.8 0.0
05/12:00am 10.0 8.0 8.6 91 0.7 WNW 9 15 5 8 1024.0 1024.0 0.0
 
Date/Time
EST
Temp
°C
App
Temp
°C
Dew
Point
Rel
Hum
%
Delta-T
°C
Wind Press
QNH
hPa
Press
MSL
hPa
Rain
since 9 am
mm
Dir
 
Spd
km/h
Gust
km/h
Spd
kts
Gust
kts
04/11:30pm 10.1 8.1 8.5 90 0.8 WNW 9 15 5 8 1024.2 1024.2 0.0
04/11:00pm 9.9 8.4 8.3 90 0.8 NW 6 9 3 5 1024.3 1024.3 0.0
04/10:30pm 9.8 8.2 8.2 90 0.8 WNW 6 9 3 5 1024.5 1024.5 0.0
04/10:00pm 10.1 8.5 8.0 87 1.0 WNW 6 9 3 5 1024.7 1024.7 0.0
04/09:30pm 10.3 8.1 7.7 84 1.2 WNW 9 15 5 8 1024.5 1024.5 0.0
04/09:00pm 10.1 7.6 8.4 89 0.8 W 11 26 6 14 1024.6 1024.6 0.0
04/08:30pm 10.1 7.9 8.0 87 1.0 WNW 9 15 5 8 1024.4 1024.4 0.0
04/08:00pm 10.2 6.9 8.1 87 1.0 W 15 20 8 11 1024.4 1024.4 0.0
04/07:30pm 10.5 7.9 7.7 83 1.3 W 11 22 6 12 1024.4 1024.4 0.0
04/07:00pm 10.3 7.1 7.0 80 1.6 W 13 17 7 9 1024.2 1024.2 0.0
04/06:30pm 10.7 7.2 7.0 78 1.8 W 15 20 8 11 1024.1 1024.1 0.0
04/06:00pm 10.7 7.9 6.8 77 1.8 WNW 11 15 6 8 1023.8 1023.8 0.0
04/05:30pm 10.9 7.6 6.6 75 2.0 W 13 20 7 11 1023.7 1023.7 0.0
04/05:00pm 11.2 6.8 6.5 73 2.2 WSW 19 26 10 14 1023.6 1023.6 0.0
04/04:30pm 11.4 7.0 6.5 72 2.3 WSW 19 30 10 16 1023.5 1023.5 0.0
04/04:00pm 11.6 6.6 6.5 71 2.4 WSW 22 28 12 15 1023.3 1023.3 0.0
04/03:30pm 12.0 7.7 6.9 71 2.4 WSW 19 26 10 14 1023.4 1023.4 0.0
04/03:00pm 11.9 7.2 6.2 68 2.7 W 20 28 11 15 1023.3 1023.3 0.0
04/02:30pm 11.8 7.0 5.4 65 3.0 WSW 20 28 11 15 1023.3 1023.3 0.0
04/02:00pm 12.0 6.9 5.9 66 2.8 WSW 22 32 12 17 1023.5 1023.5 0.0
04/01:30pm 12.0 7.1 5.2 63 3.1 WSW 20 28 11 15 1023.7 1023.7 0.0
04/01:00pm 12.0 7.6 4.5 60 3.4 WSW 17 24 9 13 1023.9 1023.9 0.0
04/12:30pm 12.0 7.1 5.0 62 3.2 WSW 20 26 11 14 1024.4 1024.4 0.0
04/12:00pm 11.8 6.1 5.0 63 3.1 WSW 24 32 13 17 1024.9 1024.9 0.0
04/11:30am 12.2 7.5 5.1 62 3.3 WSW 19 28 10 15 1025.0 1025.0 0.0
04/11:00am 11.8 6.8 4.8 62 3.2 WSW 20 28 11 15 1025.0 1025.0 0.0
04/10:30am 11.6 7.1 6.1 69 2.6 W 19 26 10 14 1025.1 1025.1 0.0
04/10:00am 11.8 8.4 5.7 66 2.8 WSW 13 19 7 10 1025.0 1025.0 0.0
04/09:30am 11.2 7.1 4.4 63 3.1 WSW 15 20 8 11 1025.1 1025.1 0.0
04/09:00am 10.8 6.8 4.9 67 2.7 SW 15 22 8 12 1025.1 1025.1 0.0
04/08:30am 10.4 6.7 4.3 66 2.7 SW 13 19 7 10 1025.0 1025.0 0.0
04/08:00am 10.2 6.4 4.1 66 2.7 SW 13 17 7 9 1024.8 1024.8 0.0
04/07:30am 9.8 5.5 3.5 65 2.7 SW 15 24 8 13 1024.6 1024.6 0.0
04/07:00am 9.6 4.3 3.1 64 2.8 SW 20 28 11 15 1024.3 1024.3 0.0
04/06:30am 9.7 5.2 4.1 68 2.5 WSW 17 24 9 13 1023.9 1023.9 0.0
04/06:00am 9.7 4.8 3.9 67 2.5 WSW 19 26 10 14 1023.8 1023.8 0.0
04/05:30am 9.7 5.1 3.9 67 2.5 WSW 17 24 9 13 1023.6 1023.6 0.0
04/05:00am 9.7 5.4 5.1 73 2.1 SW 17 26 9 14 1023.3 1023.3 0.0
04/04:30am 9.7 5.5 5.7 76 1.8 WSW 17 22 9 12 1023.0 1023.0 0.0
04/04:00am 9.6 6.0 5.0 73 2.1 SW 13 19 7 10 1023.0 1023.0 0.0
04/03:30am 9.8 6.3 5.6 75 1.9 SW 13 17 7 9 1022.9 1022.9 0.0
04/03:00am 9.8 6.0 5.8 76 1.8 WSW 15 19 8 10 1022.7 1022.7 0.0
04/02:30am 9.8 6.2 5.2 73 2.1 SW 13 17 7 9 1022.8 1022.8 0.0
04/02:00am 9.9 6.0 5.5 74 2.0 SW 15 20 8 11 1023.0 1023.0 0.0
04/01:30am 9.8 6.3 5.4 74 2.0 SW 13 17 7 9 1023.0 1023.0 0.0
04/01:00am 9.9 6.5 5.9 76 1.8 SW 13 19 7 10 1022.9 1022.9 0.0
04/12:30am 10.0 5.9 6.0 76 1.8 SW 17 20 9 11 1022.8 1022.8 0.0
04/12:00am 10.0 5.9 6.0 76 1.8 SW 17 22 9 12 1022.6 1022.6 0.0
 
Date/Time
EST
Temp
°C
App
Temp
°C
Dew
Point
Rel
Hum
%
Delta-T
°C
Wind Press
QNH
hPa
Press
MSL
hPa
Rain
since 9 am
mm
Dir
 
Spd
km/h
Gust
km/h
Spd
kts
Gust
kts
03/11:30pm 10.2 6.1 6.4 77 1.8 SW 17 22 9 12 1022.5 1022.5 0.0
03/11:00pm 10.3 6.3 6.8 79 1.6 WSW 17 22 9 12 1022.5 1022.5 0.0
03/10:30pm 10.2 6.3 7.1 81 1.5 SW 17 22 9 12 1022.2 1022.2 0.0
03/10:00pm 10.1 6.6 7.2 82 1.4 SW 15 20 8 11 1022.0 1022.0 0.0
03/09:30pm 9.8 6.2 6.9 82 1.4 SW 15 20 8 11 1021.7 1021.7 0.0
03/09:00pm 9.8 5.3 6.3 79 1.6 SW 19 26 10 14 1021.4 1021.4 0.0
03/08:30pm 9.9 5.4 6.3 78 1.7 SW 19 24 10 13 1020.9 1020.9 0.0
03/08:00pm 9.9 5.5 6.4 79 1.6 SW 19 26 10 14 1020.7 1020.7 0.0
03/07:30pm 10.3 5.7 6.5 77 1.8 SW 20 28 11 15 1020.4 1020.4 0.0
03/07:00pm 10.3 5.4 6.8 79 1.6 SW 22 28 12 15 1020.0 1020.0 0.0
03/06:30pm 10.4 5.5 6.7 78 1.7 SW 22 32 12 17 1019.7 1019.7 0.0
03/06:00pm 10.8 6.4 7.3 79 1.7 SSW 20 32 11 17 1019.1 1019.1 0.0
03/05:30pm 11.2 5.6 7.3 77 1.9 SW 26 32 14 17 1018.7 1018.7 0.0
03/05:00pm 11.8 7.4 8.8 82 1.5 SW 22 30 12 16 1018.2 1018.2 0.0
03/04:30pm 12.2 8.2 9.0 81 1.6 SW 20 26 11 14 1017.6 1017.6 0.0
03/04:00pm 12.8 8.9 9.4 80 1.7 SW 20 26 11 14 1017.3 1017.3 0.0
03/03:30pm 12.5 8.4 8.8 78 1.8 SSW 20 28 11 15 1016.9 1016.9 0.0
03/03:00pm 12.9 8.8 8.6 75 2.1 SSW 20 26 11 14 1016.3 1016.3 0.0
03/02:30pm 13.3 9.1 9.9 80 1.7 SSW 22 30 12 16 1015.9 1015.9 0.0
03/02:00pm 12.9 8.3 9.5 80 1.7 SSW 24 32 13 17 1015.5 1015.5 0.0
03/01:30pm 12.8 8.6 9.8 82 1.5 SSW 22 32 12 17 1015.4 1015.4 0.0
03/01:00pm 13.3 9.4 10.8 85 1.3 SW 22 30 12 16 1015.1 1015.1 0.0
03/12:30pm 13.3 8.6 10.7 84 1.4 SW 26 33 14 18 1014.9 1014.9 0.0
03/12:00pm 13.7 9.8 10.9 83 1.5 SW 22 32 12 17 1014.6 1014.6 0.0
03/11:30am 13.8 10.4 11.3 85 1.3 SSW 20 28 11 15 1014.4 1014.4 0.0
03/11:00am 13.1 9.6 10.8 86 1.2 SSW 20 28 11 15 1014.4 1014.4 0.0
03/10:30am 13.2 9.8 11.1 87 1.1 SSW 20 28 11 15 1014.0 1014.0 0.0
03/10:00am 12.6 9.0 10.7 88 1.0 SSW 20 30 11 16 1013.5 1013.5 0.0
03/09:30am 12.5 9.2 10.9 90 0.8 SSW 19 24 10 13 1012.9 1012.9 0.0
03/09:00am 13.2 10.2 11.9 92 0.7 SSW 19 24 10 13 1012.2 1012.2 0.0
03/08:30am 12.3 11.2 11.8 97 0.3 S 9 15 5 8 1011.7 1011.7 0.0
03/08:00am 9.5 8.5 9.0 97 0.2 WNW 4 6 2 3 1011.2 1011.2 0.0
03/07:30am 8.2 7.3 7.8 97 0.2 NW 2 2 1 1 1010.6 1010.6 0.0
03/07:00am 7.8 7.2 7.2 96 0.3 CALM 0 2 0 1 1010.1 1010.1 0.0
03/06:30am 7.2 6.0 6.5 95 0.3 NW 2 4 1 2 1009.8 1009.8 0.0
03/06:00am 8.0 7.4 7.2 95 0.4 CALM 0 0 0 0 1009.3 1009.3 0.0
03/05:30am 8.1 7.5 7.3 95 0.4 CALM 0 0 0 0 1009.0 1009.0 0.0
03/05:00am 8.6 7.7 7.8 95 0.4 N 2 2 1 1 1008.7 1008.7 0.0
03/04:30am 8.4 7.1 7.6 95 0.4 NNW 4 6 2 3 1008.4 1008.4 0.0
03/04:00am 8.5 8.0 7.7 95 0.4 CALM 0 0 0 0 1007.9 1007.9 0.0
03/03:30am 8.3 7.0 7.5 95 0.4 SSE 4 6 2 3 1007.6 1007.6 0.0
03/03:00am 8.2 6.8 7.4 95 0.4 ESE 4 6 2 3 1007.5 1007.5 0.0
03/02:30am 7.3 6.5 6.6 95 0.3 CALM 0 0 0 0 1007.8 1007.8 0.0
03/02:00am 7.0 6.2 6.3 95 0.3 CALM 0 0 0 0 1008.1 1008.1 0.0
03/01:30am 6.5 5.5 5.8 95 0.3 CALM 0 4 0 2 1008.1 1008.1 0.0
03/01:00am 5.9 4.8 5.0 94 0.4 CALM 0 0 0 0 1007.9 1007.9 0.0
03/12:30am 5.7 4.2 4.8 94 0.4 E 2 4 1 2 1007.9 1007.9 0.0
03/12:00am 6.4 5.0 5.4 93 0.4 N 2 4 1 2 1008.0 1008.0 0.0
 
Date/Time
EST
Temp
°C
App
Temp
°C
Dew
Point
Rel
Hum
%
Delta-T
°C
Wind Press
QNH
hPa
Press
MSL
hPa
Rain
since 9 am
mm
Dir
 
Spd
km/h
Gust
km/h
Spd
kts
Gust
kts
02/11:30pm 7.0 5.3 5.9 93 0.5 WNW 4 6 2 3 1008.2 1008.2 0.0
02/11:00pm 7.3 6.4 6.1 92 0.5 CALM 0 4 0 2 1008.5 1008.5 0.0
02/10:30pm 7.9 6.0 6.5 91 0.6 ENE 6 7 3 4 1008.7 1008.7 0.0
02/10:00pm 8.4 7.3 6.7 89 0.8 NW 2 4 1 2 1008.9 1008.9 0.0
02/09:30pm 9.0 8.3 7.0 87 0.9 CALM 0 0 0 0 1008.8 1008.8 0.0
02/09:00pm 9.8 8.8 7.2 84 1.2 SW 2 7 1 4 1008.9 1008.9 0.0
02/08:30pm 10.9 10.4 7.8 81 1.5 CALM 0 0 0 0 1008.7 1008.7 0.0
02/08:00pm 11.6 10.1 8.3 80 1.6 E 6 7 3 4 1008.6 1008.6 0.0
02/07:30pm 12.3 9.8 8.4 77 1.9 E 11 15 6 8 1008.5 1008.5 0.0
02/07:00pm 12.6 10.2 8.5 76 2.0 E 11 15 6 8 1008.4 1008.4 0.0
02/06:30pm 12.1 10.1 8.8 80 1.6 E 9 15 5 8 1008.2 1008.2 0.0
02/06:00pm 12.5 10.5 8.6 77 1.9 E 9 13 5 7 1007.9 1007.9 0.0
02/05:30pm 13.0 10.6 8.5 74 2.2 E 11 15 6 8 1007.5 1007.5 0.0
02/05:00pm 14.2 12.1 9.6 74 2.4 E 11 13 6 7 1007.5 1007.5 0.0
02/04:30pm 14.9 12.3 9.5 70 2.8 ESE 13 17 7 9 1007.6 1007.6 0.0
02/04:00pm 16.1 13.5 9.5 65 3.4 ESE 13 19 7 10 1007.8 1007.8 0.0
02/03:30pm 17.2 15.2 8.6 57 4.4 E 9 19 5 10 1007.9 1007.9 0.0
02/03:00pm 17.4 15.0 7.2 51 5.1 NE 9 13 5 7 1007.9 1007.9 0.0
02/02:30pm 18.5 16.5 8.5 52 5.2 ENE 9 17 5 9 1008.3 1008.3 0.0
02/02:00pm 18.2 16.3 9.0 55 4.8 ENE 9 15 5 8 1008.7 1008.7 0.0

Other Formats:

Comma delimited format used in spreadsheet applications
http://www.bom.gov.au/fwo/IDV60801/IDV60801.94886.axf

JavaScript Object Notation format (JSON) in row-major order
http://www.bom.gov.au/fwo/IDV60801/IDV60801.94886.json